sensor_id;sensor_type;location;lat;lon;timestamp;P1;durP1;ratioP1;P2;durP2;ratioP2
21822;SDS011;11074;48.596;9.238;2023-01-24T00:01:41;19.35;;;11.98;;
21822;SDS011;11074;48.596;9.238;2023-01-24T00:04:07;19.88;;;12.32;;
21822;SDS011;11074;48.596;9.238;2023-01-24T00:06:32;20.85;;;12.35;;
21822;SDS011;11074;48.596;9.238;2023-01-24T00:08:58;19.70;;;12.75;;
21822;SDS011;11074;48.596;9.238;2023-01-24T00:11:24;20.92;;;13.02;;
21822;SDS011;11074;48.596;9.238;2023-01-24T00:13:49;19.85;;;12.70;;
21822;SDS011;11074;48.596;9.238;2023-01-24T00:16:16;22.58;;;12.77;;
21822;SDS011;11074;48.596;9.238;2023-01-24T00:18:45;21.20;;;12.77;;
21822;SDS011;11074;48.596;9.238;2023-01-24T00:23:43;19.38;;;11.85;;
21822;SDS011;11074;48.596;9.238;2023-01-24T00:26:12;22.33;;;12.77;;
21822;SDS011;11074;48.596;9.238;2023-01-24T00:28:39;20.05;;;12.25;;
21822;SDS011;11074;48.596;9.238;2023-01-24T00:31:05;20.17;;;12.32;;
21822;SDS011;11074;48.596;9.238;2023-01-24T00:33:32;20.42;;;12.27;;
21822;SDS011;11074;48.596;9.238;2023-01-24T00:35:59;20.10;;;12.57;;
21822;SDS011;11074;48.596;9.238;2023-01-24T00:38:27;18.92;;;12.15;;
21822;SDS011;11074;48.596;9.238;2023-01-24T00:40:55;21.48;;;12.23;;
21822;SDS011;11074;48.596;9.238;2023-01-24T00:43:22;21.25;;;12.20;;
21822;SDS011;11074;48.596;9.238;2023-01-24T00:45:47;18.95;;;11.75;;
21822;SDS011;11074;48.596;9.238;2023-01-24T00:48:13;19.75;;;11.98;;
21822;SDS011;11074;48.596;9.238;2023-01-24T00:50:39;19.48;;;11.43;;
21822;SDS011;11074;48.596;9.238;2023-01-24T00:53:06;18.17;;;11.50;;
21822;SDS011;11074;48.596;9.238;2023-01-24T00:55:32;19.30;;;11.73;;
21822;SDS011;11074;48.596;9.238;2023-01-24T00:57:58;18.67;;;11.57;;
21822;SDS011;11074;48.596;9.238;2023-01-24T01:00:23;19.45;;;11.48;;
21822;SDS011;11074;48.596;9.238;2023-01-24T01:02:50;22.08;;;11.77;;
21822;SDS011;11074;48.596;9.238;2023-01-24T01:05:17;19.17;;;11.55;;
21822;SDS011;11074;48.596;9.238;2023-01-24T01:07:43;18.75;;;11.43;;
21822;SDS011;11074;48.596;9.238;2023-01-24T01:10:09;18.98;;;10.98;;
21822;SDS011;11074;48.596;9.238;2023-01-24T01:12:35;17.73;;;11.00;;
21822;SDS011;11074;48.596;9.238;2023-01-24T01:15:02;17.17;;;11.13;;
21822;SDS011;11074;48.596;9.238;2023-01-24T01:17:28;19.02;;;11.82;;
21822;SDS011;11074;48.596;9.238;2023-01-24T01:19:54;17.38;;;11.10;;
21822;SDS011;11074;48.596;9.238;2023-01-24T01:22:21;18.80;;;12.00;;
21822;SDS011;11074;48.596;9.238;2023-01-24T01:24:46;18.35;;;11.05;;
21822;SDS011;11074;48.596;9.238;2023-01-24T01:27:12;19.30;;;11.85;;
21822;SDS011;11074;48.596;9.238;2023-01-24T01:29:38;20.67;;;12.18;;
21822;SDS011;11074;48.596;9.238;2023-01-24T01:32:03;20.60;;;11.85;;
21822;SDS011;11074;48.596;9.238;2023-01-24T01:34:30;18.90;;;11.27;;
21822;SDS011;11074;48.596;9.238;2023-01-24T01:36:56;19.85;;;11.90;;
21822;SDS011;11074;48.596;9.238;2023-01-24T01:39:21;18.73;;;11.20;;
21822;SDS011;11074;48.596;9.238;2023-01-24T01:41:47;18.75;;;11.55;;
21822;SDS011;11074;48.596;9.238;2023-01-24T01:47:26;18.92;;;11.68;;
21822;SDS011;11074;48.596;9.238;2023-01-24T01:50:02;19.90;;;11.02;;
21822;SDS011;11074;48.596;9.238;2023-01-24T01:52:29;18.35;;;11.43;;
21822;SDS011;11074;48.596;9.238;2023-01-24T01:55:06;18.90;;;11.68;;
21822;SDS011;11074;48.596;9.238;2023-01-24T01:57:39;19.83;;;11.80;;
21822;SDS011;11074;48.596;9.238;2023-01-24T02:00:13;18.40;;;11.70;;
21822;SDS011;11074;48.596;9.238;2023-01-24T02:02:52;21.20;;;11.52;;
21822;SDS011;11074;48.596;9.238;2023-01-24T02:05:47;20.02;;;11.57;;
21822;SDS011;11074;48.596;9.238;2023-01-24T02:08:16;19.17;;;11.55;;
21822;SDS011;11074;48.596;9.238;2023-01-24T02:10:50;17.63;;;11.73;;
21822;SDS011;11074;48.596;9.238;2023-01-24T02:13:36;21.50;;;11.48;;
21822;SDS011;11074;48.596;9.238;2023-01-24T02:16:08;20.33;;;12.18;;
21822;SDS011;11074;48.596;9.238;2023-01-24T02:18:36;19.90;;;11.85;;
21822;SDS011;11074;48.596;9.238;2023-01-24T02:21:12;19.63;;;12.18;;
21822;SDS011;11074;48.596;9.238;2023-01-24T02:23:52;21.20;;;12.50;;
21822;SDS011;11074;48.596;9.238;2023-01-24T02:26:48;20.40;;;12.48;;
21822;SDS011;11074;48.596;9.238;2023-01-24T02:29:14;22.25;;;12.73;;
21822;SDS011;11074;48.596;9.238;2023-01-24T02:32:01;23.35;;;13.10;;
21822;SDS011;11074;48.596;9.238;2023-01-24T02:34:31;23.13;;;12.98;;
21822;SDS011;11074;48.596;9.238;2023-01-24T02:37:01;22.90;;;12.98;;
21822;SDS011;11074;48.596;9.238;2023-01-24T02:39:43;21.10;;;12.95;;
21822;SDS011;11074;48.596;9.238;2023-01-24T02:42:24;22.65;;;12.80;;
21822;SDS011;11074;48.596;9.238;2023-01-24T02:45:02;25.88;;;13.43;;
21822;SDS011;11074;48.596;9.238;2023-01-24T02:47:43;23.17;;;12.98;;
21822;SDS011;11074;48.596;9.238;2023-01-24T02:50:12;23.08;;;13.10;;
21822;SDS011;11074;48.596;9.238;2023-01-24T02:52:40;24.13;;;13.25;;
21822;SDS011;11074;48.596;9.238;2023-01-24T02:55:25;22.60;;;13.07;;
21822;SDS011;11074;48.596;9.238;2023-01-24T02:57:50;24.90;;;13.10;;
21822;SDS011;11074;48.596;9.238;2023-01-24T03:00:36;21.45;;;12.93;;
21822;SDS011;11074;48.596;9.238;2023-01-24T03:03:06;25.50;;;13.68;;
21822;SDS011;11074;48.596;9.238;2023-01-24T03:05:34;27.38;;;13.38;;
21822;SDS011;11074;48.596;9.238;2023-01-24T03:08:19;23.45;;;13.27;;
21822;SDS011;11074;48.596;9.238;2023-01-24T03:10:45;23.02;;;13.70;;
21822;SDS011;11074;48.596;9.238;2023-01-24T03:13:11;24.10;;;13.77;;
21822;SDS011;11074;48.596;9.238;2023-01-24T03:16:00;23.95;;;13.60;;
21822;SDS011;11074;48.596;9.238;2023-01-24T03:18:46;23.60;;;13.25;;
21822;SDS011;11074;48.596;9.238;2023-01-24T03:21:30;22.90;;;13.60;;
21822;SDS011;11074;48.596;9.238;2023-01-24T03:24:14;25.45;;;13.85;;
21822;SDS011;11074;48.596;9.238;2023-01-24T03:26:58;23.02;;;13.18;;
21822;SDS011;11074;48.596;9.238;2023-01-24T03:29:42;22.73;;;13.57;;
21822;SDS011;11074;48.596;9.238;2023-01-24T03:35:10;23.77;;;13.53;;
21822;SDS011;11074;48.596;9.238;2023-01-24T03:37:36;21.92;;;13.57;;
21822;SDS011;11074;48.596;9.238;2023-01-24T03:40:21;20.17;;;12.88;;
21822;SDS011;11074;48.596;9.238;2023-01-24T03:42:47;22.15;;;12.95;;
21822;SDS011;11074;48.596;9.238;2023-01-24T03:45:34;19.73;;;12.70;;
21822;SDS011;11074;48.596;9.238;2023-01-24T03:48:02;20.85;;;12.32;;
21822;SDS011;11074;48.596;9.238;2023-01-24T03:50:41;23.48;;;13.05;;
21822;SDS011;11074;48.596;9.238;2023-01-24T03:53:29;20.92;;;11.88;;
21822;SDS011;11074;48.596;9.238;2023-01-24T03:55:57;22.08;;;12.40;;
21822;SDS011;11074;48.596;9.238;2023-01-24T03:58:26;20.45;;;12.27;;
21822;SDS011;11074;48.596;9.238;2023-01-24T04:00:55;20.42;;;12.15;;
21822;SDS011;11074;48.596;9.238;2023-01-24T04:03:22;20.60;;;12.07;;
21822;SDS011;11074;48.596;9.238;2023-01-24T04:05:48;19.65;;;12.13;;
21822;SDS011;11074;48.596;9.238;2023-01-24T04:08:16;21.63;;;12.82;;
21822;SDS011;11074;48.596;9.238;2023-01-24T04:10:43;20.23;;;11.73;;
21822;SDS011;11074;48.596;9.238;2023-01-24T04:13:09;20.05;;;12.23;;
21822;SDS011;11074;48.596;9.238;2023-01-24T04:15:35;19.33;;;11.10;;
21822;SDS011;11074;48.596;9.238;2023-01-24T04:18:02;22.83;;;12.65;;
21822;SDS011;11074;48.596;9.238;2023-01-24T04:20:30;20.83;;;12.43;;
21822;SDS011;11074;48.596;9.238;2023-01-24T04:23:00;20.70;;;12.63;;
21822;SDS011;11074;48.596;9.238;2023-01-24T04:25:32;21.65;;;12.90;;
21822;SDS011;11074;48.596;9.238;2023-01-24T04:27:58;23.05;;;12.55;;
21822;SDS011;11074;48.596;9.238;2023-01-24T04:30:24;23.02;;;12.82;;
21822;SDS011;11074;48.596;9.238;2023-01-24T04:32:50;21.60;;;12.30;;
21822;SDS011;11074;48.596;9.238;2023-01-24T04:35:17;23.10;;;13.15;;
21822;SDS011;11074;48.596;9.238;2023-01-24T04:37:46;22.85;;;12.23;;
21822;SDS011;11074;48.596;9.238;2023-01-24T04:40:12;23.70;;;13.02;;
21822;SDS011;11074;48.596;9.238;2023-01-24T04:42:39;24.80;;;12.63;;
21822;SDS011;11074;48.596;9.238;2023-01-24T04:45:06;20.30;;;11.93;;
21822;SDS011;11074;48.596;9.238;2023-01-24T04:47:33;22.83;;;13.00;;
21822;SDS011;11074;48.596;9.238;2023-01-24T04:49:59;23.80;;;13.32;;
21822;SDS011;11074;48.596;9.238;2023-01-24T04:52:25;20.92;;;12.35;;
21822;SDS011;11074;48.596;9.238;2023-01-24T04:54:50;24.25;;;13.05;;
21822;SDS011;11074;48.596;9.238;2023-01-24T04:57:16;22.48;;;13.13;;
21822;SDS011;11074;48.596;9.238;2023-01-24T04:59:43;22.02;;;12.88;;
21822;SDS011;11074;48.596;9.238;2023-01-24T05:02:09;21.95;;;12.82;;
21822;SDS011;11074;48.596;9.238;2023-01-24T05:04:35;21.77;;;12.57;;
21822;SDS011;11074;48.596;9.238;2023-01-24T05:07:01;25.02;;;12.82;;
21822;SDS011;11074;48.596;9.238;2023-01-24T05:09:28;22.70;;;13.02;;
21822;SDS011;11074;48.596;9.238;2023-01-24T05:11:53;24.60;;;14.20;;
21822;SDS011;11074;48.596;9.238;2023-01-24T05:14:19;21.17;;;12.95;;
21822;SDS011;11074;48.596;9.238;2023-01-24T05:16:45;20.63;;;12.93;;
21822;SDS011;11074;48.596;9.238;2023-01-24T05:19:11;25.08;;;13.75;;
21822;SDS011;11074;48.596;9.238;2023-01-24T05:21:36;22.58;;;13.07;;
21822;SDS011;11074;48.596;9.238;2023-01-24T05:24:02;24.13;;;13.07;;
21822;SDS011;11074;48.596;9.238;2023-01-24T05:26:28;21.60;;;13.35;;
21822;SDS011;11074;48.596;9.238;2023-01-24T05:28:54;23.40;;;13.32;;
21822;SDS011;11074;48.596;9.238;2023-01-24T05:31:20;22.45;;;13.77;;
21822;SDS011;11074;48.596;9.238;2023-01-24T05:33:46;21.00;;;13.02;;
21822;SDS011;11074;48.596;9.238;2023-01-24T05:36:14;24.63;;;14.02;;
21822;SDS011;11074;48.596;9.238;2023-01-24T05:38:43;25.20;;;13.48;;
21822;SDS011;11074;48.596;9.238;2023-01-24T05:41:11;23.35;;;13.73;;
21822;SDS011;11074;48.596;9.238;2023-01-24T05:43:41;22.55;;;13.35;;
21822;SDS011;11074;48.596;9.238;2023-01-24T05:46:25;24.42;;;13.68;;
21822;SDS011;11074;48.596;9.238;2023-01-24T05:48:53;22.38;;;12.73;;
21822;SDS011;11074;48.596;9.238;2023-01-24T05:51:19;24.38;;;14.30;;
21822;SDS011;11074;48.596;9.238;2023-01-24T05:53:45;23.38;;;13.82;;
21822;SDS011;11074;48.596;9.238;2023-01-24T05:56:12;24.30;;;14.02;;
21822;SDS011;11074;48.596;9.238;2023-01-24T05:58:42;24.85;;;14.02;;
21822;SDS011;11074;48.596;9.238;2023-01-24T06:01:13;24.88;;;14.05;;
21822;SDS011;11074;48.596;9.238;2023-01-24T06:03:43;22.67;;;13.13;;
21822;SDS011;11074;48.596;9.238;2023-01-24T06:06:12;21.92;;;13.68;;
21822;SDS011;11074;48.596;9.238;2023-01-24T06:08:41;23.33;;;13.25;;
21822;SDS011;11074;48.596;9.238;2023-01-24T06:11:18;23.40;;;14.07;;
21822;SDS011;11074;48.596;9.238;2023-01-24T06:13:47;22.80;;;13.32;;
21822;SDS011;11074;48.596;9.238;2023-01-24T06:16:17;25.17;;;14.38;;
21822;SDS011;11074;48.596;9.238;2023-01-24T06:18:46;23.98;;;13.43;;
21822;SDS011;11074;48.596;9.238;2023-01-24T06:26:43;25.35;;;13.20;;
21822;SDS011;11074;48.596;9.238;2023-01-24T06:29:10;23.92;;;13.48;;
21822;SDS011;11074;48.596;9.238;2023-01-24T06:37:47;24.30;;;14.13;;
21822;SDS011;11074;48.596;9.238;2023-01-24T06:40:17;24.00;;;14.05;;
21822;SDS011;11074;48.596;9.238;2023-01-24T06:42:47;25.27;;;14.27;;
21822;SDS011;11074;48.596;9.238;2023-01-24T06:45:14;22.60;;;13.63;;
21822;SDS011;11074;48.596;9.238;2023-01-24T06:47:40;24.45;;;14.35;;
21822;SDS011;11074;48.596;9.238;2023-01-24T06:50:29;24.55;;;13.60;;
21822;SDS011;11074;48.596;9.238;2023-01-24T06:52:56;25.10;;;14.57;;
21822;SDS011;11074;48.596;9.238;2023-01-24T06:55:22;25.95;;;13.85;;
21822;SDS011;11074;48.596;9.238;2023-01-24T06:57:58;22.65;;;13.75;;
21822;SDS011;11074;48.596;9.238;2023-01-24T07:00:26;23.40;;;13.80;;
21822;SDS011;11074;48.596;9.238;2023-01-24T07:03:01;24.42;;;13.75;;
21822;SDS011;11074;48.596;9.238;2023-01-24T07:05:32;24.60;;;13.70;;
21822;SDS011;11074;48.596;9.238;2023-01-24T07:08:00;22.50;;;13.23;;
21822;SDS011;11074;48.596;9.238;2023-01-24T07:10:27;23.50;;;14.05;;
21822;SDS011;11074;48.596;9.238;2023-01-24T07:12:53;22.35;;;13.07;;
21822;SDS011;11074;48.596;9.238;2023-01-24T07:15:19;22.33;;;13.05;;
21822;SDS011;11074;48.596;9.238;2023-01-24T07:17:45;24.13;;;14.02;;
21822;SDS011;11074;48.596;9.238;2023-01-24T07:20:12;22.15;;;12.45;;
21822;SDS011;11074;48.596;9.238;2023-01-24T07:22:39;22.40;;;12.77;;
21822;SDS011;11074;48.596;9.238;2023-01-24T07:25:25;20.85;;;12.77;;
21822;SDS011;11074;48.596;9.238;2023-01-24T07:27:51;22.58;;;13.45;;
21822;SDS011;11074;48.596;9.238;2023-01-24T07:30:17;21.65;;;12.73;;
21822;SDS011;11074;48.596;9.238;2023-01-24T07:32:43;24.70;;;13.57;;
21822;SDS011;11074;48.596;9.238;2023-01-24T07:35:09;19.80;;;11.98;;
21822;SDS011;11074;48.596;9.238;2023-01-24T07:37:35;21.17;;;13.05;;
21822;SDS011;11074;48.596;9.238;2023-01-24T07:40:01;21.73;;;12.52;;
21822;SDS011;11074;48.596;9.238;2023-01-24T07:42:28;20.52;;;12.30;;
21822;SDS011;11074;48.596;9.238;2023-01-24T07:44:54;22.00;;;12.77;;
21822;SDS011;11074;48.596;9.238;2023-01-24T07:47:21;20.42;;;12.13;;
21822;SDS011;11074;48.596;9.238;2023-01-24T07:49:48;19.40;;;12.02;;
21822;SDS011;11074;48.596;9.238;2023-01-24T07:52:14;21.25;;;11.82;;
21822;SDS011;11074;48.596;9.238;2023-01-24T07:54:39;21.88;;;13.00;;
21822;SDS011;11074;48.596;9.238;2023-01-24T07:57:05;21.70;;;12.90;;
21822;SDS011;11074;48.596;9.238;2023-01-24T07:59:32;21.48;;;12.25;;
21822;SDS011;11074;48.596;9.238;2023-01-24T08:01:58;20.50;;;11.73;;
21822;SDS011;11074;48.596;9.238;2023-01-24T08:04:24;21.02;;;12.25;;
21822;SDS011;11074;48.596;9.238;2023-01-24T08:06:49;20.42;;;11.77;;
21822;SDS011;11074;48.596;9.238;2023-01-24T08:09:33;19.50;;;11.93;;
21822;SDS011;11074;48.596;9.238;2023-01-24T08:11:59;22.52;;;13.02;;
21822;SDS011;11074;48.596;9.238;2023-01-24T08:14:26;19.02;;;11.55;;
21822;SDS011;11074;48.596;9.238;2023-01-24T08:16:51;20.05;;;11.38;;
21822;SDS011;11074;48.596;9.238;2023-01-24T08:19:17;20.45;;;12.00;;
21822;SDS011;11074;48.596;9.238;2023-01-24T08:21:43;19.48;;;11.45;;
21822;SDS011;11074;48.596;9.238;2023-01-24T08:24:08;19.38;;;11.80;;
21822;SDS011;11074;48.596;9.238;2023-01-24T08:26:34;19.00;;;11.45;;
21822;SDS011;11074;48.596;9.238;2023-01-24T08:29:00;19.33;;;11.00;;
21822;SDS011;11074;48.596;9.238;2023-01-24T08:31:25;19.20;;;10.98;;
21822;SDS011;11074;48.596;9.238;2023-01-24T08:33:51;18.25;;;10.75;;
21822;SDS011;11074;48.596;9.238;2023-01-24T08:36:17;19.88;;;10.98;;
21822;SDS011;11074;48.596;9.238;2023-01-24T08:38:44;19.33;;;10.63;;
21822;SDS011;11074;48.596;9.238;2023-01-24T08:41:10;20.80;;;12.15;;
21822;SDS011;11074;48.596;9.238;2023-01-24T08:43:37;18.77;;;11.02;;
21822;SDS011;11074;48.596;9.238;2023-01-24T08:46:03;18.17;;;10.75;;
21822;SDS011;11074;48.596;9.238;2023-01-24T08:48:29;20.02;;;10.98;;
21822;SDS011;11074;48.596;9.238;2023-01-24T08:50:55;17.92;;;10.73;;
21822;SDS011;11074;48.596;9.238;2023-01-24T08:53:21;18.25;;;10.30;;
21822;SDS011;11074;48.596;9.238;2023-01-24T08:55:48;19.13;;;11.15;;
21822;SDS011;11074;48.596;9.238;2023-01-24T08:58:15;18.30;;;10.18;;
21822;SDS011;11074;48.596;9.238;2023-01-24T09:00:41;18.77;;;10.68;;
21822;SDS011;11074;48.596;9.238;2023-01-24T09:03:08;17.98;;;10.70;;
21822;SDS011;11074;48.596;9.238;2023-01-24T09:05:36;17.48;;;10.68;;
21822;SDS011;11074;48.596;9.238;2023-01-24T09:08:03;18.63;;;10.68;;
21822;SDS011;11074;48.596;9.238;2023-01-24T09:10:29;18.85;;;10.35;;
21822;SDS011;11074;48.596;9.238;2023-01-24T09:12:55;16.20;;;10.25;;
21822;SDS011;11074;48.596;9.238;2023-01-24T09:15:21;17.75;;;10.70;;
21822;SDS011;11074;48.596;9.238;2023-01-24T09:17:47;17.45;;;10.70;;
21822;SDS011;11074;48.596;9.238;2023-01-24T09:20:13;17.20;;;10.32;;
21822;SDS011;11074;48.596;9.238;2023-01-24T09:22:39;17.45;;;10.90;;
21822;SDS011;11074;48.596;9.238;2023-01-24T09:25:06;17.02;;;10.25;;
21822;SDS011;11074;48.596;9.238;2023-01-24T09:27:33;18.63;;;10.63;;
21822;SDS011;11074;48.596;9.238;2023-01-24T09:30:00;18.15;;;10.35;;
21822;SDS011;11074;48.596;9.238;2023-01-24T09:32:25;17.40;;;10.52;;
21822;SDS011;11074;48.596;9.238;2023-01-24T09:34:51;20.17;;;10.60;;
21822;SDS011;11074;48.596;9.238;2023-01-24T09:37:17;19.45;;;11.27;;
21822;SDS011;11074;48.596;9.238;2023-01-24T09:39:45;19.63;;;11.05;;
21822;SDS011;11074;48.596;9.238;2023-01-24T09:42:13;20.67;;;12.35;;
21822;SDS011;11074;48.596;9.238;2023-01-24T09:53:21;17.48;;;10.48;;
21822;SDS011;11074;48.596;9.238;2023-01-24T09:56:00;20.13;;;11.77;;
21822;SDS011;11074;48.596;9.238;2023-01-24T09:58:30;19.08;;;11.18;;
21822;SDS011;11074;48.596;9.238;2023-01-24T10:01:01;14.65;;;9.57;;
21822;SDS011;11074;48.596;9.238;2023-01-24T10:03:33;18.20;;;11.15;;
21822;SDS011;11074;48.596;9.238;2023-01-24T10:06:14;18.48;;;10.65;;
21822;SDS011;11074;48.596;9.238;2023-01-24T10:14:44;18.60;;;10.57;;
21822;SDS011;11074;48.596;9.238;2023-01-24T10:23:12;17.20;;;10.88;;
21822;SDS011;11074;48.596;9.238;2023-01-24T10:28:28;16.90;;;9.48;;
21822;SDS011;11074;48.596;9.238;2023-01-24T10:31:09;17.67;;;10.15;;
21822;SDS011;11074;48.596;9.238;2023-01-24T10:34:23;18.08;;;10.23;;
21822;SDS011;11074;48.596;9.238;2023-01-24T10:39:35;17.08;;;9.55;;
21822;SDS011;11074;48.596;9.238;2023-01-24T10:42:07;17.38;;;9.88;;
21822;SDS011;11074;48.596;9.238;2023-01-24T10:44:46;17.10;;;9.30;;
21822;SDS011;11074;48.596;9.238;2023-01-24T10:49:54;16.85;;;9.43;;
21822;SDS011;11074;48.596;9.238;2023-01-24T10:52:25;15.07;;;10.00;;
21822;SDS011;11074;48.596;9.238;2023-01-24T10:54:56;17.80;;;10.30;;
21822;SDS011;11074;48.596;9.238;2023-01-24T10:57:35;17.02;;;9.52;;
21822;SDS011;11074;48.596;9.238;2023-01-24T11:02:52;16.67;;;9.95;;
21822;SDS011;11074;48.596;9.238;2023-01-24T11:05:21;17.60;;;10.10;;
21822;SDS011;11074;48.596;9.238;2023-01-24T11:07:53;27.30;;;14.35;;
21822;SDS011;11074;48.596;9.238;2023-01-24T11:10:30;29.05;;;15.63;;
21822;SDS011;11074;48.596;9.238;2023-01-24T11:13:02;25.42;;;13.68;;
21822;SDS011;11074;48.596;9.238;2023-01-24T11:16:33;22.35;;;12.80;;
21822;SDS011;11074;48.596;9.238;2023-01-24T11:18:51;36.30;;;18.25;;
21822;SDS011;11074;48.596;9.238;2023-01-24T11:21:30;29.55;;;14.43;;
21822;SDS011;11074;48.596;9.238;2023-01-24T11:26:33;56.28;;;27.33;;
21822;SDS011;11074;48.596;9.238;2023-01-24T11:29:16;42.53;;;19.92;;
21822;SDS011;11074;48.596;9.238;2023-01-24T11:31:43;27.98;;;15.30;;
21822;SDS011;11074;48.596;9.238;2023-01-24T11:37:05;20.88;;;12.40;;
21822;SDS011;11074;48.596;9.238;2023-01-24T11:40:02;21.85;;;12.43;;
21822;SDS011;11074;48.596;9.238;2023-01-24T11:48:56;16.52;;;9.73;;
21822;SDS011;11074;48.596;9.238;2023-01-24T11:54:38;16.25;;;9.77;;
21822;SDS011;11074;48.596;9.238;2023-01-24T11:57:26;16.05;;;9.10;;
21822;SDS011;11074;48.596;9.238;2023-01-24T12:03:33;16.75;;;10.73;;
21822;SDS011;11074;48.596;9.238;2023-01-24T12:06:26;14.32;;;8.50;;
21822;SDS011;11074;48.596;9.238;2023-01-24T12:26:36;15.52;;;9.30;;
21822;SDS011;11074;48.596;9.238;2023-01-24T12:29:25;15.18;;;8.48;;
21822;SDS011;11074;48.596;9.238;2023-01-24T12:45:47;14.70;;;9.07;;
21822;SDS011;11074;48.596;9.238;2023-01-24T12:51:19;14.52;;;8.70;;
21822;SDS011;11074;48.596;9.238;2023-01-24T12:54:06;14.38;;;9.40;;
21822;SDS011;11074;48.596;9.238;2023-01-24T12:56:57;15.40;;;8.95;;
21822;SDS011;11074;48.596;9.238;2023-01-24T12:59:51;14.77;;;8.60;;
21822;SDS011;11074;48.596;9.238;2023-01-24T13:05:23;12.38;;;7.80;;
21822;SDS011;11074;48.596;9.238;2023-01-24T13:08:19;15.50;;;8.93;;
21822;SDS011;11074;48.596;9.238;2023-01-24T13:13:49;12.23;;;7.28;;
21822;SDS011;11074;48.596;9.238;2023-01-24T13:22:52;12.43;;;7.95;;
21822;SDS011;11074;48.596;9.238;2023-01-24T13:28:29;12.15;;;7.80;;
21822;SDS011;11074;48.596;9.238;2023-01-24T13:31:43;12.48;;;7.25;;
21822;SDS011;11074;48.596;9.238;2023-01-24T13:34:17;11.23;;;7.28;;
21822;SDS011;11074;48.596;9.238;2023-01-24T13:36:50;11.38;;;7.30;;
21822;SDS011;11074;48.596;9.238;2023-01-24T13:39:30;13.02;;;7.90;;
21822;SDS011;11074;48.596;9.238;2023-01-24T13:42:01;12.05;;;7.35;;
21822;SDS011;11074;48.596;9.238;2023-01-24T13:44:44;13.55;;;7.47;;
21822;SDS011;11074;48.596;9.238;2023-01-24T13:54:57;13.10;;;7.32;;
21822;SDS011;11074;48.596;9.238;2023-01-24T13:57:47;12.55;;;7.13;;
21822;SDS011;11074;48.596;9.238;2023-01-24T14:03:17;12.20;;;7.15;;
21822;SDS011;11074;48.596;9.238;2023-01-24T14:13:52;11.30;;;7.15;;
21822;SDS011;11074;48.596;9.238;2023-01-24T14:18:58;12.82;;;7.07;;
21822;SDS011;11074;48.596;9.238;2023-01-24T14:21:33;11.65;;;7.15;;
21822;SDS011;11074;48.596;9.238;2023-01-24T14:24:20;15.18;;;9.57;;
21822;SDS011;11074;48.596;9.238;2023-01-24T14:26:59;25.80;;;15.02;;
21822;SDS011;11074;48.596;9.238;2023-01-24T14:29:41;19.25;;;9.75;;
21822;SDS011;11074;48.596;9.238;2023-01-24T14:32:21;14.93;;;8.30;;
21822;SDS011;11074;48.596;9.238;2023-01-24T14:37:50;14.35;;;8.70;;
21822;SDS011;11074;48.596;9.238;2023-01-24T14:40:26;11.50;;;7.80;;
21822;SDS011;11074;48.596;9.238;2023-01-24T14:42:59;10.98;;;7.65;;
21822;SDS011;11074;48.596;9.238;2023-01-24T14:45:28;11.98;;;7.85;;
21822;SDS011;11074;48.596;9.238;2023-01-24T14:47:57;12.98;;;7.82;;
21822;SDS011;11074;48.596;9.238;2023-01-24T14:50:35;13.13;;;7.90;;
21822;SDS011;11074;48.596;9.238;2023-01-24T14:53:22;12.05;;;7.95;;
21822;SDS011;11074;48.596;9.238;2023-01-24T14:55:55;14.25;;;8.75;;
21822;SDS011;11074;48.596;9.238;2023-01-24T14:58:35;13.52;;;8.68;;
21822;SDS011;11074;48.596;9.238;2023-01-24T15:01:01;14.90;;;9.38;;
21822;SDS011;11074;48.596;9.238;2023-01-24T15:03:29;13.00;;;8.65;;
21822;SDS011;11074;48.596;9.238;2023-01-24T15:06:02;13.75;;;8.93;;
21822;SDS011;11074;48.596;9.238;2023-01-24T15:08:31;12.60;;;8.15;;
21822;SDS011;11074;48.596;9.238;2023-01-24T15:11:00;12.32;;;7.97;;
21822;SDS011;11074;48.596;9.238;2023-01-24T15:13:44;16.42;;;8.93;;
21822;SDS011;11074;48.596;9.238;2023-01-24T15:16:16;14.45;;;8.43;;
21822;SDS011;11074;48.596;9.238;2023-01-24T15:19:03;11.77;;;7.38;;
21822;SDS011;11074;48.596;9.238;2023-01-24T15:21:50;14.77;;;8.07;;
21822;SDS011;11074;48.596;9.238;2023-01-24T15:26:50;15.18;;;8.57;;
21822;SDS011;11074;48.596;9.238;2023-01-24T15:32:01;15.75;;;9.57;;
21822;SDS011;11074;48.596;9.238;2023-01-24T15:34:27;19.10;;;11.52;;
21822;SDS011;11074;48.596;9.238;2023-01-24T15:36:59;19.42;;;12.00;;
21822;SDS011;11074;48.596;9.238;2023-01-24T15:39:26;19.17;;;11.45;;
21822;SDS011;11074;48.596;9.238;2023-01-24T15:41:52;18.63;;;11.43;;
21822;SDS011;11074;48.596;9.238;2023-01-24T15:44:51;19.25;;;11.68;;
21822;SDS011;11074;48.596;9.238;2023-01-24T15:47:19;18.00;;;10.68;;
21822;SDS011;11074;48.596;9.238;2023-01-24T15:50:15;14.07;;;8.95;;
21822;SDS011;11074;48.596;9.238;2023-01-24T15:53:12;14.88;;;8.95;;
21822;SDS011;11074;48.596;9.238;2023-01-24T15:55:48;15.52;;;9.23;;
21822;SDS011;11074;48.596;9.238;2023-01-24T15:58:15;16.23;;;9.80;;
21822;SDS011;11074;48.596;9.238;2023-01-24T16:00:48;15.55;;;9.55;;
21822;SDS011;11074;48.596;9.238;2023-01-24T16:03:19;17.23;;;9.27;;
21822;SDS011;11074;48.596;9.238;2023-01-24T16:05:45;15.50;;;9.25;;
21822;SDS011;11074;48.596;9.238;2023-01-24T16:08:11;18.33;;;11.65;;
21822;SDS011;11074;48.596;9.238;2023-01-24T16:10:37;16.23;;;10.10;;
21822;SDS011;11074;48.596;9.238;2023-01-24T16:13:04;17.45;;;10.40;;
21822;SDS011;11074;48.596;9.238;2023-01-24T16:15:29;19.60;;;11.45;;
21822;SDS011;11074;48.596;9.238;2023-01-24T16:17:56;23.27;;;14.55;;
21822;SDS011;11074;48.596;9.238;2023-01-24T16:20:22;20.77;;;11.75;;
21822;SDS011;11074;48.596;9.238;2023-01-24T16:25:21;21.25;;;11.20;;
21822;SDS011;11074;48.596;9.238;2023-01-24T16:27:48;19.15;;;11.68;;
21822;SDS011;11074;48.596;9.238;2023-01-24T16:30:21;18.20;;;11.15;;
21822;SDS011;11074;48.596;9.238;2023-01-24T16:32:50;16.92;;;11.32;;
21822;SDS011;11074;48.596;9.238;2023-01-24T16:35:17;18.58;;;10.85;;
21822;SDS011;11074;48.596;9.238;2023-01-24T16:37:43;17.73;;;11.45;;
21822;SDS011;11074;48.596;9.238;2023-01-24T16:40:10;22.95;;;15.07;;
21822;SDS011;11074;48.596;9.238;2023-01-24T16:42:39;17.85;;;11.63;;
21822;SDS011;11074;48.596;9.238;2023-01-24T16:45:16;18.88;;;12.18;;
21822;SDS011;11074;48.596;9.238;2023-01-24T16:47:44;18.13;;;11.10;;
21822;SDS011;11074;48.596;9.238;2023-01-24T16:50:11;17.85;;;11.73;;
21822;SDS011;11074;48.596;9.238;2023-01-24T16:52:37;16.05;;;10.93;;
21822;SDS011;11074;48.596;9.238;2023-01-24T16:55:04;17.02;;;9.70;;
21822;SDS011;11074;48.596;9.238;2023-01-24T16:57:31;19.10;;;11.38;;
21822;SDS011;11074;48.596;9.238;2023-01-24T16:59:57;19.35;;;12.40;;
21822;SDS011;11074;48.596;9.238;2023-01-24T17:02:23;15.68;;;10.48;;
21822;SDS011;11074;48.596;9.238;2023-01-24T17:04:49;18.90;;;10.60;;
21822;SDS011;11074;48.596;9.238;2023-01-24T17:07:14;16.48;;;10.40;;
21822;SDS011;11074;48.596;9.238;2023-01-24T17:09:41;17.08;;;10.52;;
21822;SDS011;11074;48.596;9.238;2023-01-24T17:12:06;18.17;;;11.48;;
21822;SDS011;11074;48.596;9.238;2023-01-24T17:14:35;16.25;;;10.15;;
21822;SDS011;11074;48.596;9.238;2023-01-24T17:17:01;16.75;;;10.43;;
21822;SDS011;11074;48.596;9.238;2023-01-24T17:19:27;20.48;;;11.80;;